Time;durP1;ratioP1;P1;durP2;ratioP2;P2;SDS_P1;SDS_P2;PMS_P1;PMS_P2;Temp;Humidity;BMP_temperature;BMP_pressure;BME280_temperature;BME280_humidity;BME280_pressure;Samples;Min_cycle;Max_cycle;Signal;HPM_P1;HPM_P2
2021/09/19 00:01:21;;;;;;;9.00;6.53;;;410.30;2355.20;;;;;;5042837;28;20035;-72
2021/09/19 00:03:47;;;;;;;17.45;7.00;;;410.30;2355.20;;;;;;5043772;28;20112;-73
2021/09/19 00:06:13;;;;;;;9.73;6.55;;;410.20;2355.20;;;;;;5030360;28;20040;-73
2021/09/19 00:08:39;;;;;;;9.25;6.18;;;410.10;2355.20;;;;;;5033209;28;20044;-71
2021/09/19 00:11:05;;;;;;;11.15;7.28;;;410.10;2355.20;;;;;;5040748;28;20056;-73
2021/09/19 00:13:31;;;;;;;7.18;5.35;;;410.10;2355.20;;;;;;5044505;28;20021;-73
2021/09/19 00:15:57;;;;;;;9.85;5.93;;;410.10;2355.20;;;;;;5028274;28;20074;-73
2021/09/19 00:18:22;;;;;;;7.93;6.22;;;410.00;2355.20;;;;;;5044070;28;20415;-71
2021/09/19 00:20:48;;;;;;;9.25;6.35;;;409.90;2355.20;;;;;;5050490;28;20026;-71
2021/09/19 00:23:14;;;;;;;10.07;7.47;;;409.90;2355.20;;;;;;5053851;28;20033;-73
2021/09/19 00:25:40;;;;;;;9.05;6.47;;;409.90;2355.20;;;;;;5053463;28;20402;-73
2021/09/19 00:28:07;;;;;;;12.07;6.63;;;409.90;2355.20;;;;;;5045689;28;20021;-73
2021/09/19 00:30:33;;;;;;;9.57;6.50;;;409.90;2355.20;;;;;;5048213;28;20368;-72
2021/09/19 00:33:00;;;;;;;9.27;7.18;;;409.90;2355.20;;;;;;5033774;28;21546;-72
2021/09/19 00:35:27;;;;;;;8.15;6.28;;;410.00;2355.20;;;;;;5051883;28;20388;-73
2021/09/19 00:37:53;;;;;;;9.05;6.82;;;410.00;2355.20;;;;;;5049649;28;20104;-73
2021/09/19 00:40:19;;;;;;;11.85;6.38;;;410.00;2355.20;;;;;;5053645;28;20032;-73
2021/09/19 00:42:45;;;;;;;10.02;6.53;;;409.90;2355.20;;;;;;5052619;28;20135;-73
2021/09/19 00:45:15;;;;;;;8.23;6.78;;;410.00;2355.20;;;;;;5053465;28;20029;-72
2021/09/19 00:47:41;;;;;;;12.60;6.97;;;409.80;2355.20;;;;;;5051376;28;20078;-73
2021/09/19 00:50:09;;;;;;;10.25;7.07;;;409.80;2355.20;;;;;;5034519;28;20017;-73
2021/09/19 00:52:37;;;;;;;10.45;6.88;;;409.90;2355.20;;;;;;5052896;28;20480;-73
2021/09/19 00:55:03;;;;;;;9.02;6.93;;;409.80;2355.20;;;;;;5052686;28;20104;-72
2021/09/19 00:57:29;;;;;;;9.13;7.10;;;409.70;2355.20;;;;;;5052962;28;20025;-73
2021/09/19 00:59:55;;;;;;;8.55;6.82;;;409.70;2355.20;;;;;;5052720;28;20025;-73
2021/09/19 01:02:21;;;;;;;9.75;7.10;;;409.70;2355.20;;;;;;5050257;28;20070;-72
2021/09/19 01:04:48;;;;;;;9.07;6.65;;;409.60;2355.20;;;;;;5052481;28;20025;-72
2021/09/19 01:07:15;;;;;;;16.52;7.68;;;409.60;2355.20;;;;;;5051881;28;20035;-73
2021/09/19 01:09:41;;;;;;;10.95;7.70;;;409.70;2355.20;;;;;;5037565;28;20020;-73
2021/09/19 01:12:11;;;;;;;11.20;7.30;;;409.80;2355.20;;;;;;5035022;28;20043;-72
2021/09/19 01:14:39;;;;;;;9.88;7.53;;;409.70;2355.20;;;;;;5025427;28;20120;-73
2021/09/19 01:17:08;;;;;;;8.60;6.40;;;409.80;2355.20;;;;;;5050435;28;20052;-73
2021/09/19 01:19:36;;;;;;;8.95;6.93;;;409.80;2355.20;;;;;;5034812;28;20569;-71
2021/09/19 01:22:03;;;;;;;9.57;6.50;;;409.80;2355.20;;;;;;5052263;28;20468;-73
2021/09/19 01:24:29;;;;;;;10.25;7.30;;;409.80;2355.20;;;;;;5052638;28;20136;-73
2021/09/19 01:26:55;;;;;;;9.50;6.47;;;409.80;2355.20;;;;;;5034400;28;20104;-73
2021/09/19 01:29:21;;;;;;;12.63;6.13;;;409.80;2355.20;;;;;;5052622;28;20523;-73
2021/09/19 01:31:48;;;;;;;9.10;7.20;;;409.80;2355.20;;;;;;5052363;28;20029;-72
2021/09/19 01:34:14;;;;;;;10.90;7.40;;;409.80;2355.20;;;;;;5052140;28;20040;-72
2021/09/19 01:36:40;;;;;;;13.10;7.63;;;409.70;2355.20;;;;;;5038866;28;20021;-73
2021/09/19 01:39:08;;;;;;;11.82;7.13;;;409.70;2355.20;;;;;;5034382;28;20392;-72
2021/09/19 01:41:35;;;;;;;10.95;7.35;;;409.70;2355.20;;;;;;5052288;28;20031;-72
2021/09/19 01:44:02;;;;;;;10.85;7.57;;;409.70;2355.20;;;;;;5051970;28;20484;-72
2021/09/19 01:46:28;;;;;;;9.30;7.38;;;409.80;2355.20;;;;;;5052021;28;20166;-70
2021/09/19 01:48:53;;;;;;;12.60;7.43;;;409.80;2355.20;;;;;;5051711;28;20515;-72
2021/09/19 01:51:19;;;;;;;9.77;7.55;;;409.70;2355.20;;;;;;5051960;28;20029;-72
2021/09/19 01:53:45;;;;;;;10.43;7.43;;;409.60;2355.20;;;;;;5051702;28;20483;-72
2021/09/19 01:56:11;;;;;;;8.80;6.18;;;384.90;2329.60;;;;;;5052155;28;20036;-72
2021/09/19 01:58:42;;;;;;;11.05;7.32;;;409.60;2355.20;;;;;;5051581;28;20037;-72
2021/09/19 02:01:09;;;;;;;9.63;6.93;;;384.90;2329.60;;;;;;5051508;28;20025;-70
2021/09/19 02:03:37;;;;;;;10.52;7.22;;;384.90;2329.60;;;;;;5033819;28;20025;-72
2021/09/19 02:06:03;;;;;;;11.40;7.68;;;409.60;2355.20;;;;;;5043969;28;20367;-72
2021/09/19 02:08:29;;;;;;;9.00;7.18;;;384.90;2329.60;;;;;;5051822;28;20036;-72
2021/09/19 02:10:55;;;;;;;11.07;9.07;;;384.90;2329.60;;;;;;5050800;28;20056;-72
2021/09/19 02:13:21;;;;;;;11.18;7.25;;;384.70;2329.60;;;;;;5051127;28;20052;-72
2021/09/19 02:15:47;;;;;;;14.95;8.40;;;384.70;2329.60;;;;;;5051567;28;20017;-73
2021/09/19 02:18:12;;;;;;;9.65;6.82;;;384.70;2329.60;;;;;;5026599;28;20139;-73
2021/09/19 02:20:38;;;;;;;10.23;7.78;;;384.80;2329.60;;;;;;5033121;28;20531;-73
2021/09/19 02:23:04;;;;;;;10.32;7.38;;;384.80;2329.60;;;;;;5033633;28;20033;-73
2021/09/19 02:25:30;;;;;;;10.88;7.43;;;384.90;2329.60;;;;;;5051254;28;20049;-73
2021/09/19 02:27:56;;;;;;;51.50;34.90;;;384.90;2329.60;;;;;;5051236;28;20013;-73
2021/09/19 02:30:22;;;;;;;30.63;21.55;;;384.70;2329.60;;;;;;5041286;28;20033;-73
2021/09/19 02:32:47;;;;;;;17.52;13.35;;;384.70;2329.60;;;;;;5045858;28;20135;-73
2021/09/19 02:35:14;;;;;;;12.98;8.63;;;384.60;2329.60;;;;;;5051761;28;20092;-73
2021/09/19 02:37:41;;;;;;;9.65;8.32;;;384.50;2329.60;;;;;;5051336;28;20108;-73
2021/09/19 02:40:09;;;;;;;10.15;7.82;;;384.40;2329.60;;;;;;5051442;28;20654;-72
2021/09/19 02:42:36;;;;;;;11.82;8.80;;;384.30;2329.60;;;;;;5051171;28;20021;-72
2021/09/19 02:45:03;;;;;;;11.95;7.85;;;384.20;2329.60;;;;;;5051463;28;20879;-73
2021/09/19 02:47:29;;;;;;;9.43;7.43;;;384.40;2329.60;;;;;;5023820;28;20464;-73
2021/09/19 02:49:55;;;;;;;10.98;8.43;;;384.40;2329.60;;;;;;5045341;28;20025;-72
2021/09/19 02:52:20;;;;;;;12.43;8.48;;;384.40;2329.60;;;;;;5017469;28;20032;-73
2021/09/19 02:54:46;;;;;;;11.45;8.48;;;384.40;2329.60;;;;;;5031310;28;20485;-72
2021/09/19 02:57:12;;;;;;;9.48;7.68;;;384.30;2329.60;;;;;;5037115;28;20021;-73
2021/09/19 02:59:37;;;;;;;11.15;7.10;;;384.40;2329.60;;;;;;5033153;28;20420;-73
2021/09/19 03:02:06;;;;;;;10.63;8.07;;;384.40;2329.60;;;;;;5051089;28;20025;-73
2021/09/19 03:04:32;;;;;;;11.13;8.55;;;384.40;2329.60;;;;;;5041652;28;20034;-72
2021/09/19 03:06:58;;;;;;;10.90;8.55;;;384.40;2329.60;;;;;;5049847;28;20017;-72
2021/09/19 03:09:23;;;;;;;14.40;8.05;;;384.20;2329.60;;;;;;5052991;28;20024;-72
2021/09/19 03:11:49;;;;;;;14.52;8.15;;;384.20;2329.60;;;;;;5051754;28;20039;-73
2021/09/19 03:14:15;;;;;;;8.80;7.90;;;384.20;2329.60;;;;;;5051025;28;20021;-73
2021/09/19 03:16:40;;;;;;;12.50;8.77;;;384.20;2329.60;;;;;;5051226;28;20491;-72
2021/09/19 03:19:06;;;;;;;10.70;8.07;;;384.10;2329.60;;;;;;5047067;28;20392;-72
2021/09/19 03:21:32;;;;;;;11.07;9.27;;;384.20;2329.60;;;;;;5040477;28;20112;-73
2021/09/19 03:23:58;;;;;;;13.68;8.55;;;384.20;2329.60;;;;;;5050990;28;20091;-72
2021/09/19 03:26:23;;;;;;;13.48;8.73;;;384.20;2329.60;;;;;;5050664;28;20499;-72
2021/09/19 03:28:49;;;;;;;14.75;8.70;;;384.20;2329.60;;;;;;5051065;28;20026;-72
2021/09/19 03:31:15;;;;;;;11.10;8.80;;;384.10;2329.60;;;;;;5052403;28;20071;-72
2021/09/19 03:33:40;;;;;;;13.13;8.30;;;384.10;2329.60;;;;;;5055022;28;20431;-73
2021/09/19 03:36:06;;;;;;;10.57;7.32;;;384.00;2329.60;;;;;;5054509;28;20021;-73
2021/09/19 03:38:32;;;;;;;12.60;8.88;;;384.10;2329.60;;;;;;5054829;28;20071;-73
2021/09/19 03:40:58;;;;;;;10.65;8.35;;;384.00;2329.60;;;;;;5040626;28;20438;-72
2021/09/19 03:43:23;;;;;;;13.35;8.18;;;384.00;2329.60;;;;;;5048740;28;20026;-72
2021/09/19 03:45:49;;;;;;;13.95;9.70;;;384.10;2329.60;;;;;;5046340;28;20051;-73
2021/09/19 03:48:15;;;;;;;10.65;8.10;;;384.10;2329.60;;;;;;5032450;28;20391;-73
2021/09/19 03:50:41;;;;;;;11.43;8.70;;;384.20;2329.60;;;;;;5044402;28;20479;-73
2021/09/19 03:53:07;;;;;;;11.10;8.02;;;384.20;2329.60;;;;;;5054077;28;20029;-73
2021/09/19 03:55:33;;;;;;;12.23;10.10;;;384.20;2329.60;;;;;;5054682;28;20446;-73
2021/09/19 03:57:59;;;;;;;10.60;8.23;;;384.20;2329.60;;;;;;5054220;28;20112;-72
2021/09/19 04:00:25;;;;;;;13.35;8.35;;;384.10;2329.60;;;;;;5040623;28;20017;-73
2021/09/19 04:02:51;;;;;;;12.90;8.77;;;384.10;2329.60;;;;;;5053989;28;20021;-72
2021/09/19 04:05:16;;;;;;;9.98;8.20;;;384.00;2329.60;;;;;;5050351;28;20021;-72
2021/09/19 04:07:42;;;;;;;11.60;7.80;;;384.10;2329.60;;;;;;5043940;28;20021;-73
2021/09/19 04:10:09;;;;;;;10.70;7.85;;;384.20;2329.60;;;;;;5032510;28;20063;-72
2021/09/19 04:12:35;;;;;;;11.60;8.43;;;384.20;2329.60;;;;;;5033936;28;20034;-73
2021/09/19 04:15:01;;;;;;;13.32;8.93;;;384.10;2329.60;;;;;;5029529;28;20044;-72
2021/09/19 04:17:27;;;;;;;9.45;8.10;;;384.20;2329.60;;;;;;5040411;28;20025;-72
2021/09/19 04:19:53;;;;;;;12.63;9.45;;;384.20;2329.60;;;;;;5023553;28;20531;-73
2021/09/19 04:22:20;;;;;;;14.27;9.23;;;384.20;2329.60;;;;;;5052295;28;20040;-72
2021/09/19 04:24:46;;;;;;;18.92;14.35;;;384.30;2329.60;;;;;;5053616;28;20041;-72
2021/09/19 04:27:12;;;;;;;27.17;21.02;;;384.30;2329.60;;;;;;5034834;28;20032;-72
2021/09/19 04:29:38;;;;;;;33.08;27.23;;;384.40;2329.60;;;;;;5039387;28;20025;-72
2021/09/19 04:32:04;;;;;;;35.55;28.25;;;384.40;2329.60;;;;;;5043380;28;20032;-73
2021/09/19 04:34:30;;;;;;;33.30;25.98;;;384.40;2329.60;;;;;;5018139;28;20033;-72
2021/09/19 04:36:55;;;;;;;35.05;27.05;;;384.30;2329.60;;;;;;5045103;28;20476;-72
2021/09/19 04:39:21;;;;;;;37.22;27.35;;;384.30;2329.60;;;;;;5032897;28;20041;-72
2021/09/19 04:41:47;;;;;;;36.53;27.38;;;384.30;2329.60;;;;;;5028141;28;20024;-70
2021/09/19 04:44:13;;;;;;;36.80;26.05;;;384.30;2329.60;;;;;;5027845;28;20031;-70
2021/09/19 04:46:38;;;;;;;28.00;23.45;;;384.30;2329.60;;;;;;5052998;28;20092;-70
2021/09/19 04:49:04;;;;;;;19.38;16.13;;;384.30;2329.60;;;;;;5053559;28;20383;-72
2021/09/19 04:51:30;;;;;;;15.85;11.90;;;384.30;2329.60;;;;;;5050481;28;20032;-72
2021/09/19 04:53:56;;;;;;;14.75;11.93;;;384.20;2329.60;;;;;;5020883;28;20037;-70
2021/09/19 04:56:21;;;;;;;21.08;10.93;;;384.00;2329.60;;;;;;5047068;28;20025;-71
2021/09/19 04:58:47;;;;;;;12.63;9.25;;;384.10;2329.60;;;;;;5040296;28;20029;-70
2021/09/19 05:01:13;;;;;;;14.07;9.95;;;384.00;2329.60;;;;;;5031773;28;20091;-71
2021/09/19 05:03:39;;;;;;;11.38;9.27;;;384.10;2329.60;;;;;;5047207;28;20025;-70
2021/09/19 05:06:04;;;;;;;13.02;9.70;;;384.00;2329.60;;;;;;5025365;28;20038;-71
2021/09/19 05:08:30;;;;;;;9.80;8.55;;;384.00;2329.60;;;;;;5052490;28;20075;-72
2021/09/19 05:10:56;;;;;;;14.23;9.05;;;384.00;2329.60;;;;;;5052896;28;20048;-70
2021/09/19 05:13:23;;;;;;;13.57;9.40;;;384.00;2329.60;;;;;;5052426;28;20090;-71
2021/09/19 05:15:49;;;;;;;10.85;8.35;;;384.10;2329.60;;;;;;5034976;28;20044;-70
2021/09/19 05:18:14;;;;;;;11.18;8.73;;;384.20;2329.60;;;;;;5052500;28;20479;-73
2021/09/19 05:20:40;;;;;;;13.15;9.82;;;384.40;2329.60;;;;;;5052772;28;20392;-73
2021/09/19 05:23:06;;;;;;;14.13;9.40;;;384.40;2329.60;;;;;;5034422;28;20492;-74
2021/09/19 05:25:32;;;;;;;12.27;9.05;;;384.50;2329.60;;;;;;5052607;28;20049;-71
2021/09/19 05:27:57;;;;;;;13.73;9.68;;;384.40;2329.60;;;;;;5052377;28;20353;-73
2021/09/19 05:30:23;;;;;;;13.20;10.70;;;384.50;2329.60;;;;;;5041990;28;20028;-71
2021/09/19 05:32:49;;;;;;;16.08;9.60;;;384.40;2329.60;;;;;;5030340;28;20487;-70
2021/09/19 05:35:15;;;;;;;12.25;9.60;;;384.60;2329.60;;;;;;5052545;28;20528;-72
2021/09/19 05:37:40;;;;;;;14.85;9.55;;;384.60;2329.60;;;;;;5052037;28;20108;-70
2021/09/19 05:40:08;;;;;;;14.32;8.93;;;384.60;2329.60;;;;;;5052056;28;20025;-71
2021/09/19 05:42:35;;;;;;;11.80;8.85;;;384.60;2329.60;;;;;;5052404;28;20053;-70
2021/09/19 05:45:01;;;;;;;10.93;9.10;;;384.70;2329.60;;;;;;5046755;28;20026;-71
2021/09/19 05:47:27;;;;;;;10.10;7.65;;;384.70;2329.60;;;;;;5031784;28;20021;-72
2021/09/19 05:49:52;;;;;;;10.15;8.15;;;384.90;2329.60;;;;;;5051866;28;20029;-73
2021/09/19 05:52:18;;;;;;;12.40;8.30;;;409.60;2355.20;;;;;;5037757;28;20496;-71
2021/09/19 05:54:44;;;;;;;10.88;8.07;;;409.60;2355.20;;;;;;5051367;28;20028;-71
2021/09/19 05:57:09;;;;;;;13.70;9.65;;;409.70;2355.20;;;;;;5051553;28;20750;-71
2021/09/19 05:59:35;;;;;;;13.10;9.98;;;409.80;2355.20;;;;;;5051838;28;20032;-71
2021/09/19 06:02:01;;;;;;;17.80;11.73;;;409.80;2355.20;;;;;;5034005;28;20115;-71
2021/09/19 06:04:27;;;;;;;18.80;13.55;;;410.00;2355.20;;;;;;5051254;28;20438;-70
2021/09/19 06:06:52;;;;;;;15.20;11.15;;;410.00;2355.20;;;;;;5051126;28;20032;-70
2021/09/19 06:09:18;;;;;;;14.80;12.10;;;410.20;2355.20;;;;;;5052171;28;20496;-70
2021/09/19 06:11:44;;;;;;;23.38;13.50;;;410.30;2355.20;;;;;;5051430;28;20021;-70
2021/09/19 06:14:10;;;;;;;21.38;10.73;;;410.40;2355.20;;;;;;5051796;28;20037;-71
2021/09/19 06:16:37;;;;;;;11.52;9.90;;;435.20;2355.20;;;;;;5051318;28;20033;-71
2021/09/19 06:19:03;;;;;;;12.25;9.70;;;435.20;2355.20;;;;;;5051672;28;20021;-71
2021/09/19 06:21:29;;;;;;;11.75;9.50;;;435.20;2355.20;;;;;;5050734;28;20033;-71
2021/09/19 06:23:55;;;;;;;13.20;8.70;;;435.20;2355.20;;;;;;5033519;28;20036;-71
2021/09/19 06:26:21;;;;;;;13.00;8.55;;;435.50;2355.20;;;;;;5050823;28;20028;-71
2021/09/19 06:28:47;;;;;;;9.63;7.82;;;435.70;2355.20;;;;;;5043373;28;20469;-71
2021/09/19 06:31:14;;;;;;;9.52;7.15;;;435.80;2355.20;;;;;;5047925;28;20044;-71
2021/09/19 06:33:40;;;;;;;10.10;8.40;;;436.00;2355.20;;;;;;5051222;28;20071;-71
2021/09/19 06:36:07;;;;;;;11.13;8.10;;;436.10;2355.20;;;;;;5051669;28;20055;-71
2021/09/19 06:38:33;;;;;;;9.43;7.80;;;461.00;2380.80;;;;;;5046464;28;20385;-71
2021/09/19 06:40:59;;;;;;;9.75;6.90;;;461.10;2380.80;;;;;;5024575;28;20463;-71
2021/09/19 06:43:25;;;;;;;9.60;7.90;;;461.40;2380.80;;;;;;5030359;28;20113;-72
2021/09/19 06:45:51;;;;;;;9.38;7.82;;;486.40;2380.80;;;;;;5031676;28;20408;-73
2021/09/19 06:48:17;;;;;;;9.48;6.80;;;486.60;2380.80;;;;;;5045755;28;20036;-73
2021/09/19 06:50:43;;;;;;;8.02;7.15;;;486.80;2380.80;;;;;;5051377;28;20032;-73
2021/09/19 06:53:09;;;;;;;7.72;6.90;;;487.20;2380.80;;;;;;5053525;28;20526;-73
2021/09/19 06:55:34;;;;;;;9.23;7.68;;;512.20;2380.80;;;;;;5032967;28;20133;-73
2021/09/19 06:58:00;;;;;;;8.85;7.43;;;512.10;2380.80;;;;;;5050846;28;20036;-74
2021/09/19 07:00:26;;;;;;;12.95;7.45;;;512.20;2380.80;;;;;;5032739;28;20044;-74
2021/09/19 07:02:52;;;;;;;8.40;6.90;;;512.30;2380.80;;;;;;5040351;28;20096;-73
2021/09/19 07:05:19;;;;;;;7.07;6.10;;;512.50;2380.80;;;;;;5051016;28;20044;-73
2021/09/19 07:07:45;;;;;;;7.03;5.97;;;537.60;2406.40;;;;;;5055252;28;20104;-73
2021/09/19 07:10:11;;;;;;;8.20;7.40;;;537.60;2406.40;;;;;;5054951;28;20103;-73
2021/09/19 07:12:38;;;;;;;7.28;6.30;;;537.70;2406.40;;;;;;5055179;28;20448;-73
2021/09/19 07:15:05;;;;;;;8.55;5.95;;;537.80;2406.40;;;;;;5054832;28;20503;-73
2021/09/19 07:17:32;;;;;;;8.25;6.72;;;537.60;2406.40;;;;;;5055165;28;20025;-73
2021/09/19 07:19:59;;;;;;;8.63;6.53;;;512.60;2380.80;;;;;;5036886;28;20488;-74
2021/09/19 07:22:26;;;;;;;9.70;6.07;;;512.70;2380.80;;;;;;5054599;28;20040;-73
2021/09/19 07:24:52;;;;;;;7.25;5.95;;;537.60;2406.40;;;;;;5055028;28;20162;-73
2021/09/19 07:27:18;;;;;;;9.98;6.43;;;538.10;2406.40;;;;;;5054503;28;20031;-73
2021/09/19 07:29:44;;;;;;;8.23;5.80;;;538.20;2406.40;;;;;;5036548;28;20040;-73
2021/09/19 07:32:12;;;;;;;8.52;6.03;;;538.40;2406.40;;;;;;5054652;28;20029;-74
2021/09/19 07:34:39;;;;;;;7.25;6.53;;;563.20;2432.00;;;;;;5050822;28;20032;-73
2021/09/19 07:37:06;;;;;;;9.18;5.90;;;563.70;2432.00;;;;;;5034337;28;20369;-73
2021/09/19 07:39:33;;;;;;;7.00;5.13;;;563.90;2432.00;;;;;;5050745;28;20032;-73
2021/09/19 07:41:59;;;;;;;6.00;5.03;;;563.80;2432.00;;;;;;5054018;28;20452;-73
2021/09/19 07:44:25;;;;;;;7.25;4.65;;;588.80;2432.00;;;;;;5054547;28;20021;-73
2021/09/19 07:46:53;;;;;;;5.28;4.25;;;589.10;2432.00;;;;;;5036059;28;20041;-74
2021/09/19 07:49:20;;;;;;;6.20;4.50;;;589.20;2432.00;;;;;;5054027;28;20143;-74
2021/09/19 07:51:46;;;;;;;5.47;3.72;;;588.90;2432.00;;;;;;5054269;28;20036;-73
2021/09/19 07:54:12;;;;;;;6.53;4.40;;;589.10;2432.00;;;;;;5054158;28;20083;-73
2021/09/19 07:56:38;;;;;;;4.60;3.83;;;589.30;2432.00;;;;;;5048721;28;20060;-73
2021/09/19 07:59:04;;;;;;;6.18;4.57;;;589.50;2432.00;;;;;;5047208;28;20052;-74
2021/09/19 08:01:30;;;;;;;6.18;3.70;;;589.70;2432.00;;;;;;5045585;28;20037;-73
2021/09/19 08:03:55;;;;;;;4.43;3.55;;;589.70;2432.00;;;;;;5050401;28;20035;-73
2021/09/19 08:06:22;;;;;;;4.63;3.97;;;614.80;2432.00;;;;;;5046675;28;20021;-73
2021/09/19 08:08:49;;;;;;;7.95;4.05;;;614.80;2432.00;;;;;;5023878;28;20041;-73
2021/09/19 08:11:16;;;;;;;5.70;4.03;;;615.00;2432.00;;;;;;5049861;28;20012;-74
2021/09/19 08:13:42;;;;;;;7.20;4.32;;;615.20;2432.00;;;;;;5043055;28;20033;-74
2021/09/19 08:16:09;;;;;;;5.13;3.75;;;615.30;2432.00;;;;;;5048268;28;20033;-75
2021/09/19 08:18:35;;;;;;;6.03;3.70;;;615.30;2380.80;;;;;;5045996;28;20021;-75
2021/09/19 08:21:02;;;;;;;4.00;3.25;;;640.10;2329.60;;;;;;5045501;28;20086;-75
2021/09/19 08:23:27;;;;;;;6.20;3.10;;;640.60;2278.40;;;;;;5047462;28;20736;-75
2021/09/19 08:25:53;;;;;;;3.90;3.28;;;640.60;2227.20;;;;;;5025712;28;20046;-75
2021/09/19 08:28:19;;;;;;;4.43;3.22;;;640.60;2201.60;;;;;;5054250;28;20062;-74
2021/09/19 08:30:45;;;;;;;3.78;2.60;;;640.60;2176.00;;;;;;5048436;28;20515;-75
2021/09/19 08:33:10;;;;;;;3.70;2.42;;;640.80;2150.40;;;;;;5053484;28;20029;-75
2021/09/19 08:35:37;;;;;;;4.18;3.13;;;665.70;2124.80;;;;;;5050595;28;20116;-78
2021/09/19 08:38:03;;;;;;;4.28;3.17;;;666.10;2124.80;;;;;;5045029;28;20060;-75
2021/09/19 08:40:29;;;;;;;3.45;2.80;;;666.30;2073.60;;;;;;5027489;28;20061;-75
2021/09/19 08:42:55;;;;;;;4.80;3.30;;;666.30;2048.00;;;;;;5042153;28;20029;-75
2021/09/19 08:45:22;;;;;;;4.72;3.20;;;666.50;2048.00;;;;;;5048087;28;20095;-74
2021/09/19 08:47:52;;;;;;;4.97;2.97;;;666.50;2073.60;;;;;;5041958;28;20511;-75
2021/09/19 08:50:20;;;;;;;5.30;2.92;;;691.20;1996.80;;;;;;5041363;28;20518;-75
2021/09/19 08:52:46;;;;;;;4.97;3.38;;;691.40;1996.80;;;;;;5043958;28;20373;-74
2021/09/19 08:55:12;;;;;;;3.55;2.30;;;691.40;1996.80;;;;;;5041272;28;20022;-74
2021/09/19 08:57:38;;;;;;;4.15;2.30;;;691.20;1945.60;;;;;;5042203;28;20039;-74
2021/09/19 09:00:10;;;;;;;2.58;2.13;;;691.40;1945.60;;;;;;5027908;28;20041;-75
2021/09/19 09:02:47;;;;;;;2.65;2.00;;;691.70;1868.80;;;;;;5042933;28;20112;-74
2021/09/19 09:05:35;;;;;;;2.28;1.90;;;692.00;1868.80;;;;;;5025737;28;20022;-74
2021/09/19 09:08:00;;;;;;;3.60;2.50;;;691.80;1868.80;;;;;;5042790;28;20488;-74
2021/09/19 09:10:36;;;;;;;3.78;2.58;;;692.00;1843.20;;;;;;5044135;28;20055;-74
2021/09/19 09:13:05;;;;;;;3.58;2.05;;;717.20;1843.20;;;;;;5045162;28;20027;-74
2021/09/19 09:16:02;;;;;;;3.28;2.45;;;717.30;1817.60;;;;;;5047627;28;20059;-74
2021/09/19 09:18:36;;;;;;;4.18;2.10;;;717.50;1792.00;;;;;;4974269;28;20041;-75
2021/09/19 09:21:35;;;;;;;2.50;1.73;;;717.40;1766.40;;;;;;4976082;28;20465;-75
2021/09/19 09:24:03;;;;;;;2.15;1.60;;;717.50;1740.80;;;;;;4987249;28;20099;-75
2021/09/19 09:26:37;;;;;;;3.30;2.00;;;742.90;1715.20;;;;;;4991286;28;20030;-74
2021/09/19 09:29:08;;;;;;;2.70;1.88;;;742.80;1715.20;;;;;;4990621;28;20069;-74
2021/09/19 09:31:36;;;;;;;2.75;1.80;;;742.70;1740.80;;;;;;4992202;28;20062;-74
2021/09/19 09:34:09;;;;;;;2.80;1.98;;;743.10;1664.00;;;;;;4992076;28;20037;-74
2021/09/19 09:36:43;;;;;;;3.97;1.90;;;743.30;1664.00;;;;;;4992386;28;20101;-73
2021/09/19 09:39:23;;;;;;;2.58;1.77;;;743.10;1664.00;;;;;;4993133;28;20037;-73
2021/09/19 09:41:49;;;;;;;3.30;1.85;;;768.70;1612.80;;;;;;4991657;28;20063;-73
2021/09/19 09:44:30;;;;;;;2.72;2.10;;;768.90;1561.60;;;;;;4993269;28;20465;-74
2021/09/19 09:46:57;;;;;;;2.58;1.92;;;768.70;1561.60;;;;;;4990356;28;20130;-73
2021/09/19 09:49:36;;;;;;;2.42;1.80;;;793.60;1561.60;;;;;;4969077;28;20129;-74
2021/09/19 09:52:24;;;;;;;6.72;1.67;;;768.30;1536.00;;;;;;4986728;28;20038;-73
2021/09/19 09:54:54;;;;;;;2.45;1.77;;;793.60;1536.00;;;;;;4998836;28;20113;-74
2021/09/19 09:57:28;;;;;;;3.28;2.00;;;768.90;1510.40;;;;;;5030698;28;20082;-74
2021/09/19 09:59:57;;;;;;;2.42;1.80;;;793.70;1510.40;;;;;;5028394;28;20048;-74
2021/09/19 10:02:23;;;;;;;3.78;1.75;;;768.80;1510.40;;;;;;5047509;28;20071;-74
2021/09/19 10:04:51;;;;;;;2.55;1.60;;;768.40;1510.40;;;;;;5034942;28;20025;-73
2021/09/19 10:07:18;;;;;;;2.97;1.70;;;793.80;1536.00;;;;;;5038409;28;20056;-73
2021/09/19 10:09:43;;;;;;;3.50;2.22;;;794.20;1459.20;;;;;;5038106;28;20026;-70
2021/09/19 10:12:09;;;;;;;4.40;2.42;;;794.50;1459.20;;;;;;5041921;28;20056;-70
2021/09/19 10:14:36;;;;;;;2.83;2.10;;;819.50;1459.20;;;;;;5044603;28;20021;-74
2021/09/19 10:17:02;;;;;;;3.13;1.95;;;819.20;1433.60;;;;;;5039498;28;20358;-74
2021/09/19 10:19:28;;;;;;;2.53;1.63;;;794.20;1459.20;;;;;;5042125;28;20025;-71
2021/09/19 10:21:55;;;;;;;3.28;2.40;;;794.40;1459.20;;;;;;5044135;28;20121;-71
2021/09/19 10:24:22;;;;;;;4.22;1.98;;;819.40;1433.60;;;;;;5045620;28;20073;-72
2021/09/19 10:26:56;;;;;;;5.63;2.08;;;794.30;1433.60;;;;;;5018643;28;20036;-72
2021/09/19 10:29:27;;;;;;;3.65;1.85;;;794.20;1459.20;;;;;;5035653;28;20422;-72
2021/09/19 10:31:56;;;;;;;2.30;1.50;;;819.70;1408.00;;;;;;5042017;28;20040;-72
2021/09/19 10:34:31;;;;;;;4.55;2.08;;;819.50;1382.40;;;;;;5042082;28;20028;-72
2021/09/19 10:36:57;;;;;;;2.88;2.00;;;845.00;1382.40;;;;;;5040480;28;20383;-72
2021/09/19 10:39:25;;;;;;;2.55;1.70;;;844.80;1382.40;;;;;;5046358;28;20059;-72
2021/09/19 10:42:10;;;;;;;2.55;1.90;;;845.30;1356.80;;;;;;5044096;28;20111;-72
2021/09/19 10:44:45;;;;;;;3.58;1.80;;;845.30;1356.80;;;;;;5040266;28;20017;-72
2021/09/19 10:47:30;;;;;;;3.50;2.05;;;845.00;1356.80;;;;;;5025179;28;20079;-72
2021/09/19 10:50:20;;;;;;;2.83;1.95;;;845.50;1331.20;;;;;;5044025;28;20056;-72
2021/09/19 10:52:48;;;;;;;2.60;1.90;;;845.60;1331.20;;;;;;5048416;28;20379;-72
2021/09/19 10:55:34;;;;;;;2.60;1.60;;;845.70;1305.60;;;;;;5039075;28;20103;-72
2021/09/19 10:58:11;;;;;;;2.78;1.80;;;845.70;1305.60;;;;;;5041241;28;20082;-73
2021/09/19 11:00:39;;;;;;;12.80;4.00;;;870.90;1280.00;;;;;;5044112;28;20040;-72
2021/09/19 11:03:09;;;;;;;4.50;2.35;;;896.00;1254.40;;;;;;5041832;28;20029;-72
2021/09/19 11:05:36;;;;;;;3.20;2.20;;;871.10;1254.40;;;;;;5043039;28;20553;-72
2021/09/19 11:08:07;;;;;;;2.85;2.20;;;870.90;1254.40;;;;;;5039528;28;20653;-71
2021/09/19 11:10:55;;;;;;;3.00;2.28;;;896.00;1254.40;;;;;;5033359;28;20025;-71
2021/09/19 11:13:30;;;;;;;3.70;2.75;;;896.70;1228.80;;;;;;5038806;28;20479;-72
2021/09/19 11:16:06;;;;;;;3.63;2.10;;;896.90;1177.60;;;;;;5027283;28;20480;-72
2021/09/19 11:18:40;;;;;;;4.20;2.15;;;896.10;1203.20;;;;;;5045458;28;20051;-72
2021/09/19 11:21:21;;;;;;;1.98;1.42;;;870.60;1254.40;;;;;;5041084;28;20033;-71
2021/09/19 11:24:13;;;;;;;3.95;1.98;;;871.10;1228.80;;;;;;5034900;28;20025;-72
2021/09/19 11:26:46;;;;;;;2.83;1.75;;;896.00;1203.20;;;;;;5014052;28;20039;-70
2021/09/19 11:29:15;;;;;;;3.22;2.13;;;871.30;1203.20;;;;;;5035865;28;20025;-71
2021/09/19 11:31:44;;;;;;;4.38;2.92;;;896.00;1203.20;;;;;;5036539;28;20029;-71
2021/09/19 11:34:16;;;;;;;2.75;1.98;;;896.00;1203.20;;;;;;5038936;28;20025;-71
2021/09/19 11:36:48;;;;;;;3.08;1.95;;;896.40;1177.60;;;;;;5039155;28;20060;-71
2021/09/19 11:39:15;;;;;;;3.00;2.28;;;896.30;1177.60;;;;;;5039008;28;20032;-72
2021/09/19 11:41:42;;;;;;;2.65;1.95;;;896.50;1177.60;;;;;;5031925;28;20072;-71
2021/09/19 11:44:11;;;;;;;3.50;2.10;;;896.50;1177.60;;;;;;5039529;28;20025;-72
2021/09/19 11:46:42;;;;;;;3.83;1.98;;;896.50;1177.60;;;;;;5039822;28;20034;-72
2021/09/19 11:49:08;;;;;;;2.65;2.00;;;896.70;1152.00;;;;;;5042224;28;20525;-72
2021/09/19 11:51:33;;;;;;;2.92;2.00;;;921.80;1177.60;;;;;;5045610;28;20064;-72
2021/09/19 11:53:59;;;;;;;4.53;2.10;;;947.20;1152.00;;;;;;5044607;28;20032;-71
2021/09/19 11:56:27;;;;;;;3.78;2.20;;;896.80;1126.40;;;;;;5040124;28;20037;-72
2021/09/19 11:58:54;;;;;;;2.65;1.80;;;896.60;1126.40;;;;;;5040006;28;20021;-72
2021/09/19 12:01:25;;;;;;;3.78;2.00;;;896.80;1126.40;;;;;;5044553;28;20018;-72
2021/09/19 12:03:51;;;;;;;3.33;2.40;;;896.10;1152.00;;;;;;5042141;28;20029;-72
2021/09/19 12:06:17;;;;;;;2.25;1.70;;;871.20;1177.60;;;;;;5045553;28;20056;-73
2021/09/19 12:08:43;;;;;;;2.90;2.33;;;896.70;1152.00;;;;;;5018226;28;20068;-72
2021/09/19 12:11:11;;;;;;;2.70;1.90;;;921.70;1152.00;;;;;;5036577;28;20465;-72
2021/09/19 12:13:39;;;;;;;3.10;2.00;;;871.10;1177.60;;;;;;5043586;28;20086;-72
2021/09/19 12:16:11;;;;;;;2.67;1.80;;;870.80;1177.60;;;;;;5060314;28;20035;-71